sensor_id;sensor_type;location;lat;lon;timestamp;temperature;humidity
3550;DHT22;45572;48.804;8.330;2023-03-01T00:01:17;0.70;83.00
3550;DHT22;45572;48.804;8.330;2023-03-01T00:03:45;0.70;82.80
3550;DHT22;45572;48.804;8.330;2023-03-01T00:06:13;0.70;82.70
3550;DHT22;45572;48.804;8.330;2023-03-01T00:08:42;0.80;83.00
3550;DHT22;45572;48.804;8.330;2023-03-01T00:11:12;0.80;82.80
3550;DHT22;45572;48.804;8.330;2023-03-01T00:13:40;0.80;82.50
3550;DHT22;45572;48.804;8.330;2023-03-01T00:16:10;0.80;82.50
3550;DHT22;45572;48.804;8.330;2023-03-01T00:18:40;0.80;82.50
3550;DHT22;45572;48.804;8.330;2023-03-01T00:21:08;0.80;82.40
3550;DHT22;45572;48.804;8.330;2023-03-01T00:23:37;0.80;82.70
3550;DHT22;45572;48.804;8.330;2023-03-01T00:26:06;0.80;82.50
3550;DHT22;45572;48.804;8.330;2023-03-01T00:28:35;0.70;82.70
3550;DHT22;45572;48.804;8.330;2023-03-01T00:31:04;0.70;82.80
3550;DHT22;45572;48.804;8.330;2023-03-01T00:33:31;0.70;82.80
3550;DHT22;45572;48.804;8.330;2023-03-01T00:36:01;0.70;83.00
3550;DHT22;45572;48.804;8.330;2023-03-01T00:38:30;0.70;82.90
3550;DHT22;45572;48.804;8.330;2023-03-01T00:41:03;0.60;82.80
3550;DHT22;45572;48.804;8.330;2023-03-01T00:43:31;0.60;82.60
3550;DHT22;45572;48.804;8.330;2023-03-01T00:46:03;0.60;82.50
3550;DHT22;45572;48.804;8.330;2023-03-01T00:48:31;0.60;82.90
3550;DHT22;45572;48.804;8.330;2023-03-01T00:51:06;0.60;82.80
3550;DHT22;45572;48.804;8.330;2023-03-01T00:53:34;0.70;82.60
3550;DHT22;45572;48.804;8.330;2023-03-01T00:56:04;0.70;82.30
3550;DHT22;45572;48.804;8.330;2023-03-01T00:58:32;0.80;82.40
3550;DHT22;45572;48.804;8.330;2023-03-01T01:01:00;0.80;82.50
3550;DHT22;45572;48.804;8.330;2023-03-01T01:03:27;0.80;82.00
3550;DHT22;45572;48.804;8.330;2023-03-01T01:05:55;0.80;82.00
3550;DHT22;45572;48.804;8.330;2023-03-01T01:08:24;0.70;82.20
3550;DHT22;45572;48.804;8.330;2023-03-01T01:10:52;0.70;82.40
3550;DHT22;45572;48.804;8.330;2023-03-01T01:13:20;0.70;82.20
3550;DHT22;45572;48.804;8.330;2023-03-01T01:15:48;0.70;82.40
3550;DHT22;45572;48.804;8.330;2023-03-01T01:18:15;0.60;82.40
3550;DHT22;45572;48.804;8.330;2023-03-01T01:20:43;0.50;82.70
3550;DHT22;45572;48.804;8.330;2023-03-01T01:23:11;0.50;82.90
3550;DHT22;45572;48.804;8.330;2023-03-01T01:25:40;0.50;82.80
3550;DHT22;45572;48.804;8.330;2023-03-01T01:28:08;0.50;82.70
3550;DHT22;45572;48.804;8.330;2023-03-01T01:30:35;0.60;82.80
3550;DHT22;45572;48.804;8.330;2023-03-01T01:33:03;0.60;82.60
3550;DHT22;45572;48.804;8.330;2023-03-01T01:35:31;0.60;82.60
3550;DHT22;45572;48.804;8.330;2023-03-01T01:37:59;0.70;82.30
3550;DHT22;45572;48.804;8.330;2023-03-01T01:40:26;0.70;82.20
3550;DHT22;45572;48.804;8.330;2023-03-01T01:42:55;0.70;82.00
3550;DHT22;45572;48.804;8.330;2023-03-01T01:45:29;0.80;81.90
3550;DHT22;45572;48.804;8.330;2023-03-01T01:48:00;0.80;82.00
3550;DHT22;45572;48.804;8.330;2023-03-01T01:50:32;0.80;81.60
3550;DHT22;45572;48.804;8.330;2023-03-01T01:53:07;0.80;81.50
3550;DHT22;45572;48.804;8.330;2023-03-01T01:55:37;0.80;81.60
3550;DHT22;45572;48.804;8.330;2023-03-01T01:58:11;0.80;81.60
3550;DHT22;45572;48.804;8.330;2023-03-01T02:00:40;0.80;81.70
3550;DHT22;45572;48.804;8.330;2023-03-01T02:03:11;0.80;81.50
3550;DHT22;45572;48.804;8.330;2023-03-01T02:05:45;0.80;81.30
3550;DHT22;45572;48.804;8.330;2023-03-01T02:08:23;0.80;81.50
3550;DHT22;45572;48.804;8.330;2023-03-01T02:10:52;0.80;81.60
3550;DHT22;45572;48.804;8.330;2023-03-01T02:13:23;0.80;81.50
3550;DHT22;45572;48.804;8.330;2023-03-01T02:15:51;0.80;81.60
3550;DHT22;45572;48.804;8.330;2023-03-01T02:18:21;0.70;82.00
3550;DHT22;45572;48.804;8.330;2023-03-01T02:21:01;0.70;82.10
3550;DHT22;45572;48.804;8.330;2023-03-01T02:23:31;0.70;82.20
3550;DHT22;45572;48.804;8.330;2023-03-01T02:26:05;0.70;82.30
3550;DHT22;45572;48.804;8.330;2023-03-01T02:28:38;0.70;82.00
3550;DHT22;45572;48.804;8.330;2023-03-01T02:31:07;0.60;82.30
3550;DHT22;45572;48.804;8.330;2023-03-01T02:33:50;0.60;82.30
3550;DHT22;45572;48.804;8.330;2023-03-01T02:36:21;0.60;82.40
3550;DHT22;45572;48.804;8.330;2023-03-01T02:38:52;0.60;82.40
3550;DHT22;45572;48.804;8.330;2023-03-01T02:41:22;0.50;82.50
3550;DHT22;45572;48.804;8.330;2023-03-01T02:43:52;0.50;82.70
3550;DHT22;45572;48.804;8.330;2023-03-01T02:46:23;0.50;82.80
3550;DHT22;45572;48.804;8.330;2023-03-01T02:48:52;0.40;83.10
3550;DHT22;45572;48.804;8.330;2023-03-01T02:51:27;0.40;83.30
3550;DHT22;45572;48.804;8.330;2023-03-01T02:54:08;0.40;83.40
3550;DHT22;45572;48.804;8.330;2023-03-01T02:56:37;0.40;83.70
3550;DHT22;45572;48.804;8.330;2023-03-01T02:59:07;0.30;83.90
3550;DHT22;45572;48.804;8.330;2023-03-01T03:01:37;0.30;83.80
3550;DHT22;45572;48.804;8.330;2023-03-01T03:04:08;0.00;84.40
3550;DHT22;45572;48.804;8.330;2023-03-01T03:06:37;0.00;85.00
3550;DHT22;45572;48.804;8.330;2023-03-01T03:09:05;0.00;85.00
3550;DHT22;45572;48.804;8.330;2023-03-01T03:11:34;0.00;84.90
3550;DHT22;45572;48.804;8.330;2023-03-01T03:14:03;-0.10;85.10
3550;DHT22;45572;48.804;8.330;2023-03-01T03:16:32;-0.10;85.60
3550;DHT22;45572;48.804;8.330;2023-03-01T03:19:00;-0.10;85.80
3550;DHT22;45572;48.804;8.330;2023-03-01T03:21:32;-0.10;85.90
3550;DHT22;45572;48.804;8.330;2023-03-01T03:24:00;-0.10;85.70
3550;DHT22;45572;48.804;8.330;2023-03-01T03:26:28;-0.10;85.70
3550;DHT22;45572;48.804;8.330;2023-03-01T03:28:56;-0.20;85.60
3550;DHT22;45572;48.804;8.330;2023-03-01T03:31:24;-0.20;85.80
3550;DHT22;45572;48.804;8.330;2023-03-01T03:33:54;-0.20;86.10
3550;DHT22;45572;48.804;8.330;2023-03-01T03:36:23;-0.20;86.00
3550;DHT22;45572;48.804;8.330;2023-03-01T03:38:51;-0.20;86.20
3550;DHT22;45572;48.804;8.330;2023-03-01T03:41:19;-0.20;86.20
3550;DHT22;45572;48.804;8.330;2023-03-01T03:43:47;-0.20;85.80
3550;DHT22;45572;48.804;8.330;2023-03-01T03:46:15;-0.20;85.70
3550;DHT22;45572;48.804;8.330;2023-03-01T03:48:44;-0.40;86.20
3550;DHT22;45572;48.804;8.330;2023-03-01T03:51:15;-0.40;86.70
3550;DHT22;45572;48.804;8.330;2023-03-01T03:53:44;-0.40;86.80
3550;DHT22;45572;48.804;8.330;2023-03-01T03:56:12;-0.50;86.90
3550;DHT22;45572;48.804;8.330;2023-03-01T03:58:40;-0.60;87.30
3550;DHT22;45572;48.804;8.330;2023-03-01T04:01:07;-0.60;87.40
3550;DHT22;45572;48.804;8.330;2023-03-01T04:03:35;-0.70;87.90
3550;DHT22;45572;48.804;8.330;2023-03-01T04:06:04;-0.70;88.00
3550;DHT22;45572;48.804;8.330;2023-03-01T04:08:33;-0.60;88.20
3550;DHT22;45572;48.804;8.330;2023-03-01T04:11:02;-0.50;87.80
3550;DHT22;45572;48.804;8.330;2023-03-01T04:13:51;-0.70;88.00
3550;DHT22;45572;48.804;8.330;2023-03-01T04:16:20;-0.80;88.00
3550;DHT22;45572;48.804;8.330;2023-03-01T04:18:48;-0.80;88.30
3550;DHT22;45572;48.804;8.330;2023-03-01T04:21:16;-0.70;88.50
3550;DHT22;45572;48.804;8.330;2023-03-01T04:23:45;-0.70;88.40
3550;DHT22;45572;48.804;8.330;2023-03-01T04:26:12;-0.70;88.40
3550;DHT22;45572;48.804;8.330;2023-03-01T04:28:42;-0.70;88.30
3550;DHT22;45572;48.804;8.330;2023-03-01T04:31:13;-0.70;88.20
3550;DHT22;45572;48.804;8.330;2023-03-01T04:33:44;-0.70;88.50
3550;DHT22;45572;48.804;8.330;2023-03-01T04:36:14;-0.70;88.40
3550;DHT22;45572;48.804;8.330;2023-03-01T04:38:42;-0.70;88.30
3550;DHT22;45572;48.804;8.330;2023-03-01T04:41:16;-0.70;88.40
3550;DHT22;45572;48.804;8.330;2023-03-01T04:43:44;-0.70;88.20
3550;DHT22;45572;48.804;8.330;2023-03-01T04:46:14;-0.60;88.30
3550;DHT22;45572;48.804;8.330;2023-03-01T04:48:45;-0.70;88.20
3550;DHT22;45572;48.804;8.330;2023-03-01T04:51:14;-1.00;88.50
3550;DHT22;45572;48.804;8.330;2023-03-01T04:53:43;-0.90;88.90
3550;DHT22;45572;48.804;8.330;2023-03-01T04:56:11;-0.80;88.90
3550;DHT22;45572;48.804;8.330;2023-03-01T04:58:42;-0.80;88.80
3550;DHT22;45572;48.804;8.330;2023-03-01T05:01:10;-0.80;89.00
3550;DHT22;45572;48.804;8.330;2023-03-01T05:03:42;-0.80;88.90
3550;DHT22;45572;48.804;8.330;2023-03-01T05:06:11;-0.70;88.90
3550;DHT22;45572;48.804;8.330;2023-03-01T05:08:40;-0.60;88.80
3550;DHT22;45572;48.804;8.330;2023-03-01T05:11:08;-0.60;88.50
3550;DHT22;45572;48.804;8.330;2023-03-01T05:13:37;-0.60;88.80
3550;DHT22;45572;48.804;8.330;2023-03-01T05:16:08;-0.50;88.70
3550;DHT22;45572;48.804;8.330;2023-03-01T05:18:38;-0.50;88.50
3550;DHT22;45572;48.804;8.330;2023-03-01T05:21:07;-0.50;88.60
3550;DHT22;45572;48.804;8.330;2023-03-01T05:23:35;-0.50;88.50
3550;DHT22;45572;48.804;8.330;2023-03-01T05:26:05;-0.40;88.60
3550;DHT22;45572;48.804;8.330;2023-03-01T05:28:48;-0.40;88.10
3550;DHT22;45572;48.804;8.330;2023-03-01T05:31:18;-0.30;87.90
3550;DHT22;45572;48.804;8.330;2023-03-01T05:33:47;-0.20;88.00
3550;DHT22;45572;48.804;8.330;2023-03-01T05:36:17;-0.10;87.90
3550;DHT22;45572;48.804;8.330;2023-03-01T05:38:45;-0.20;87.60
3550;DHT22;45572;48.804;8.330;2023-03-01T05:41:14;-0.20;87.80
3550;DHT22;45572;48.804;8.330;2023-03-01T05:43:42;-0.10;87.90
3550;DHT22;45572;48.804;8.330;2023-03-01T05:46:11;-0.10;87.70
3550;DHT22;45572;48.804;8.330;2023-03-01T05:48:43;-0.10;87.30
3550;DHT22;45572;48.804;8.330;2023-03-01T05:51:11;-0.20;87.40
3550;DHT22;45572;48.804;8.330;2023-03-01T05:53:39;-0.20;87.70
3550;DHT22;45572;48.804;8.330;2023-03-01T05:56:07;-0.10;87.70
3550;DHT22;45572;48.804;8.330;2023-03-01T05:58:34;0.00;87.30
3550;DHT22;45572;48.804;8.330;2023-03-01T06:01:02;0.00;87.10
3550;DHT22;45572;48.804;8.330;2023-03-01T06:03:30;-0.10;86.90
3550;DHT22;45572;48.804;8.330;2023-03-01T06:05:59;-0.10;87.40
3550;DHT22;45572;48.804;8.330;2023-03-01T06:08:29;-0.10;87.40
3550;DHT22;45572;48.804;8.330;2023-03-01T06:10:56;-0.10;87.50
3550;DHT22;45572;48.804;8.330;2023-03-01T06:13:27;-0.10;87.70
3550;DHT22;45572;48.804;8.330;2023-03-01T06:15:56;0.00;87.30
3550;DHT22;45572;48.804;8.330;2023-03-01T06:18:23;-0.10;87.30
3550;DHT22;45572;48.804;8.330;2023-03-01T06:20:53;-0.10;87.30
3550;DHT22;45572;48.804;8.330;2023-03-01T06:23:22;-0.20;87.40
3550;DHT22;45572;48.804;8.330;2023-03-01T06:25:50;-0.20;87.50
3550;DHT22;45572;48.804;8.330;2023-03-01T06:28:18;-0.20;87.70
3550;DHT22;45572;48.804;8.330;2023-03-01T06:30:46;-0.20;87.70
3550;DHT22;45572;48.804;8.330;2023-03-01T06:33:14;-0.20;87.70
3550;DHT22;45572;48.804;8.330;2023-03-01T06:35:42;-0.30;87.90
3550;DHT22;45572;48.804;8.330;2023-03-01T06:38:09;-0.20;88.10
3550;DHT22;45572;48.804;8.330;2023-03-01T06:40:38;-0.20;88.30
3550;DHT22;45572;48.804;8.330;2023-03-01T06:43:07;-0.20;88.30
3550;DHT22;45572;48.804;8.330;2023-03-01T06:45:34;-0.10;88.20
3550;DHT22;45572;48.804;8.330;2023-03-01T06:48:03;0.00;87.80
3550;DHT22;45572;48.804;8.330;2023-03-01T06:50:32;0.00;87.30
3550;DHT22;45572;48.804;8.330;2023-03-01T06:53:00;-0.20;88.00
3550;DHT22;45572;48.804;8.330;2023-03-01T06:55:28;-0.10;88.40
3550;DHT22;45572;48.804;8.330;2023-03-01T06:57:58;0.10;88.30
3550;DHT22;45572;48.804;8.330;2023-03-01T07:00:27;0.20;88.00
3550;DHT22;45572;48.804;8.330;2023-03-01T07:02:58;0.40;87.60
3550;DHT22;45572;48.804;8.330;2023-03-01T07:05:29;0.50;87.20
3550;DHT22;45572;48.804;8.330;2023-03-01T07:07:57;0.60;86.50
3550;DHT22;45572;48.804;8.330;2023-03-01T07:10:25;0.70;85.80
3550;DHT22;45572;48.804;8.330;2023-03-01T07:12:57;0.70;85.10
3550;DHT22;45572;48.804;8.330;2023-03-01T07:15:26;0.70;85.80
3550;DHT22;45572;48.804;8.330;2023-03-01T07:17:54;0.70;85.80
3550;DHT22;45572;48.804;8.330;2023-03-01T07:20:23;0.70;85.60
3550;DHT22;45572;48.804;8.330;2023-03-01T07:22:52;0.80;85.60
3550;DHT22;45572;48.804;8.330;2023-03-01T07:25:20;0.90;85.30
3550;DHT22;45572;48.804;8.330;2023-03-01T07:27:50;1.00;84.50
3550;DHT22;45572;48.804;8.330;2023-03-01T07:30:22;1.40;84.60
3550;DHT22;45572;48.804;8.330;2023-03-01T07:32:57;2.30;83.30
3550;DHT22;45572;48.804;8.330;2023-03-01T07:35:25;3.50;80.40
3550;DHT22;45572;48.804;8.330;2023-03-01T07:37:56;4.50;75.40
3550;DHT22;45572;48.804;8.330;2023-03-01T07:40:24;5.90;72.40
3550;DHT22;45572;48.804;8.330;2023-03-01T07:42:55;7.40;68.50
3550;DHT22;45572;48.804;8.330;2023-03-01T07:45:24;8.90;64.80
3550;DHT22;45572;48.804;8.330;2023-03-01T07:47:55;10.20;60.80
3550;DHT22;45572;48.804;8.330;2023-03-01T07:50:25;11.50;57.30
3550;DHT22;45572;48.804;8.330;2023-03-01T07:52:53;12.40;54.20
3550;DHT22;45572;48.804;8.330;2023-03-01T07:55:23;13.10;52.30
3550;DHT22;45572;48.804;8.330;2023-03-01T07:57:51;13.80;50.80
3550;DHT22;45572;48.804;8.330;2023-03-01T08:00:19;14.30;48.90
3550;DHT22;45572;48.804;8.330;2023-03-01T08:02:48;13.90;49.10
3550;DHT22;45572;48.804;8.330;2023-03-01T08:05:16;14.50;49.20
3550;DHT22;45572;48.804;8.330;2023-03-01T08:07:44;15.30;47.60
3550;DHT22;45572;48.804;8.330;2023-03-01T08:10:12;16.10;46.50
3550;DHT22;45572;48.804;8.330;2023-03-01T08:12:39;15.60;44.70
3550;DHT22;45572;48.804;8.330;2023-03-01T08:15:08;15.80;45.50
3550;DHT22;45572;48.804;8.330;2023-03-01T08:17:36;15.70;44.80
3550;DHT22;45572;48.804;8.330;2023-03-01T08:20:06;15.70;44.60
3550;DHT22;45572;48.804;8.330;2023-03-01T08:22:34;15.10;45.30
3550;DHT22;45572;48.804;8.330;2023-03-01T08:25:01;14.10;47.30
3550;DHT22;45572;48.804;8.330;2023-03-01T08:27:29;14.80;46.90
3550;DHT22;45572;48.804;8.330;2023-03-01T08:29:57;14.90;46.10
3550;DHT22;45572;48.804;8.330;2023-03-01T08:32:25;15.20;45.70
3550;DHT22;45572;48.804;8.330;2023-03-01T08:34:52;15.50;45.60
3550;DHT22;45572;48.804;8.330;2023-03-01T08:37:21;16.00;45.00
3550;DHT22;45572;48.804;8.330;2023-03-01T08:39:49;16.50;44.60
3550;DHT22;45572;48.804;8.330;2023-03-01T08:42:17;17.50;43.20
3550;DHT22;45572;48.804;8.330;2023-03-01T08:44:45;17.30;42.30
3550;DHT22;45572;48.804;8.330;2023-03-01T08:47:12;17.70;42.00
3550;DHT22;45572;48.804;8.330;2023-03-01T08:49:41;17.60;41.20
3550;DHT22;45572;48.804;8.330;2023-03-01T08:52:08;16.70;43.10
3550;DHT22;45572;48.804;8.330;2023-03-01T08:54:38;17.00;43.20
3550;DHT22;45572;48.804;8.330;2023-03-01T08:57:05;17.00;42.20
3550;DHT22;45572;48.804;8.330;2023-03-01T08:59:33;16.60;42.70
3550;DHT22;45572;48.804;8.330;2023-03-01T09:02:03;15.70;44.10
3550;DHT22;45572;48.804;8.330;2023-03-01T09:04:31;16.60;45.00
3550;DHT22;45572;48.804;8.330;2023-03-01T09:06:59;16.50;42.70
3550;DHT22;45572;48.804;8.330;2023-03-01T09:09:27;16.80;42.80
3550;DHT22;45572;48.804;8.330;2023-03-01T09:11:56;16.70;42.20
3550;DHT22;45572;48.804;8.330;2023-03-01T09:14:24;16.50;43.50
3550;DHT22;45572;48.804;8.330;2023-03-01T09:16:52;17.30;43.40
3550;DHT22;45572;48.804;8.330;2023-03-01T09:19:20;17.30;42.60
3550;DHT22;45572;48.804;8.330;2023-03-01T09:21:53;17.80;41.60
3550;DHT22;45572;48.804;8.330;2023-03-01T09:24:24;17.70;41.80
3550;DHT22;45572;48.804;8.330;2023-03-01T09:26:55;18.40;41.50
3550;DHT22;45572;48.804;8.330;2023-03-01T09:29:24;19.30;39.90
3550;DHT22;45572;48.804;8.330;2023-03-01T09:31:52;18.90;39.30
3550;DHT22;45572;48.804;8.330;2023-03-01T09:34:21;18.60;40.20
3550;DHT22;45572;48.804;8.330;2023-03-01T09:36:50;19.00;40.50
3550;DHT22;45572;48.804;8.330;2023-03-01T09:39:18;19.00;40.10
3550;DHT22;45572;48.804;8.330;2023-03-01T09:41:50;19.00;39.80
3550;DHT22;45572;48.804;8.330;2023-03-01T09:44:29;19.90;39.70
3550;DHT22;45572;48.804;8.330;2023-03-01T09:46:59;19.70;39.10
3550;DHT22;45572;48.804;8.330;2023-03-01T09:49:29;19.50;39.00
3550;DHT22;45572;48.804;8.330;2023-03-01T09:52:00;19.30;38.80
3550;DHT22;45572;48.804;8.330;2023-03-01T09:54:31;19.40;39.40
3550;DHT22;45572;48.804;8.330;2023-03-01T09:57:06;19.50;39.20
3550;DHT22;45572;48.804;8.330;2023-03-01T09:59:49;19.50;39.10
3550;DHT22;45572;48.804;8.330;2023-03-01T10:02:24;18.90;39.60
3550;DHT22;45572;48.804;8.330;2023-03-01T10:04:56;19.30;39.70
3550;DHT22;45572;48.804;8.330;2023-03-01T10:07:32;19.30;39.10
3550;DHT22;45572;48.804;8.330;2023-03-01T10:10:06;19.00;39.50
3550;DHT22;45572;48.804;8.330;2023-03-01T10:12:37;19.00;39.70
3550;DHT22;45572;48.804;8.330;2023-03-01T10:15:12;18.70;39.80
3550;DHT22;45572;48.804;8.330;2023-03-01T10:17:44;18.70;40.00
3550;DHT22;45572;48.804;8.330;2023-03-01T10:20:18;18.40;40.70
3550;DHT22;45572;48.804;8.330;2023-03-01T10:22:46;19.00;40.10
3550;DHT22;45572;48.804;8.330;2023-03-01T10:25:29;18.60;39.90
3550;DHT22;45572;48.804;8.330;2023-03-01T10:28:02;18.90;40.30
3550;DHT22;45572;48.804;8.330;2023-03-01T10:30:35;18.90;39.00
3550;DHT22;45572;48.804;8.330;2023-03-01T10:33:13;18.90;39.50
3550;DHT22;45572;48.804;8.330;2023-03-01T10:35:43;19.00;39.80
3550;DHT22;45572;48.804;8.330;2023-03-01T10:38:13;18.80;39.80
3550;DHT22;45572;48.804;8.330;2023-03-01T10:40:51;18.70;39.10
3550;DHT22;45572;48.804;8.330;2023-03-01T10:43:19;18.30;40.20
3550;DHT22;45572;48.804;8.330;2023-03-01T10:45:49;18.10;40.70
3550;DHT22;45572;48.804;8.330;2023-03-01T10:48:18;17.90;40.30
3550;DHT22;45572;48.804;8.330;2023-03-01T10:50:50;17.90;40.90
3550;DHT22;45572;48.804;8.330;2023-03-01T10:53:25;18.50;40.80
3550;DHT22;45572;48.804;8.330;2023-03-01T10:56:00;18.80;39.70
3550;DHT22;45572;48.804;8.330;2023-03-01T10:58:29;18.70;40.30
3550;DHT22;45572;48.804;8.330;2023-03-01T11:01:03;18.50;39.70
3550;DHT22;45572;48.804;8.330;2023-03-01T11:03:33;18.60;39.90
3550;DHT22;45572;48.804;8.330;2023-03-01T11:06:05;18.20;41.40
3550;DHT22;45572;48.804;8.330;2023-03-01T11:08:40;18.50;40.50
3550;DHT22;45572;48.804;8.330;2023-03-01T11:11:21;18.60;40.00
3550;DHT22;45572;48.804;8.330;2023-03-01T11:13:57;19.40;39.20
3550;DHT22;45572;48.804;8.330;2023-03-01T11:16:30;19.60;38.80
3550;DHT22;45572;48.804;8.330;2023-03-01T11:19:03;19.50;39.10
3550;DHT22;45572;48.804;8.330;2023-03-01T11:21:33;19.30;39.20
3550;DHT22;45572;48.804;8.330;2023-03-01T11:24:04;19.10;39.60
3550;DHT22;45572;48.804;8.330;2023-03-01T11:26:37;18.60;39.90
3550;DHT22;45572;48.804;8.330;2023-03-01T11:29:15;18.60;40.50
3550;DHT22;45572;48.804;8.330;2023-03-01T11:31:46;19.20;40.10
3550;DHT22;45572;48.804;8.330;2023-03-01T11:34:34;18.70;40.20
3550;DHT22;45572;48.804;8.330;2023-03-01T11:37:12;18.10;40.50
3550;DHT22;45572;48.804;8.330;2023-03-01T11:39:50;18.00;40.80
3550;DHT22;45572;48.804;8.330;2023-03-01T11:42:42;18.20;41.10
3550;DHT22;45572;48.804;8.330;2023-03-01T11:45:13;18.20;41.70
3550;DHT22;45572;48.804;8.330;2023-03-01T11:47:51;18.40;40.60
3550;DHT22;45572;48.804;8.330;2023-03-01T11:50:30;18.30;40.30
3550;DHT22;45572;48.804;8.330;2023-03-01T11:53:14;18.40;40.20
3550;DHT22;45572;48.804;8.330;2023-03-01T11:55:54;18.00;41.00
3550;DHT22;45572;48.804;8.330;2023-03-01T11:58:40;18.00;41.30
3550;DHT22;45572;48.804;8.330;2023-03-01T12:01:24;17.40;41.20
3550;DHT22;45572;48.804;8.330;2023-03-01T12:04:18;16.80;42.20
3550;DHT22;45572;48.804;8.330;2023-03-01T12:06:57;16.20;43.50
3550;DHT22;45572;48.804;8.330;2023-03-01T12:09:34;14.90;44.60
3550;DHT22;45572;48.804;8.330;2023-03-01T12:12:28;14.10;46.70
3550;DHT22;45572;48.804;8.330;2023-03-01T12:15:11;13.30;48.60
3550;DHT22;45572;48.804;8.330;2023-03-01T12:18:01;12.80;49.30
3550;DHT22;45572;48.804;8.330;2023-03-01T12:20:40;12.20;49.80
3550;DHT22;45572;48.804;8.330;2023-03-01T12:23:31;11.90;50.90
3550;DHT22;45572;48.804;8.330;2023-03-01T12:26:07;11.60;52.10
3550;DHT22;45572;48.804;8.330;2023-03-01T12:28:52;11.40;52.00
3550;DHT22;45572;48.804;8.330;2023-03-01T12:31:35;11.10;52.80
3550;DHT22;45572;48.804;8.330;2023-03-01T12:34:19;10.90;54.20
3550;DHT22;45572;48.804;8.330;2023-03-01T12:37:03;10.70;53.70
3550;DHT22;45572;48.804;8.330;2023-03-01T12:39:46;10.70;54.50
3550;DHT22;45572;48.804;8.330;2023-03-01T12:42:24;10.70;54.20
3550;DHT22;45572;48.804;8.330;2023-03-01T12:45:24;10.40;55.00
3550;DHT22;45572;48.804;8.330;2023-03-01T12:48:05;10.30;54.80
3550;DHT22;45572;48.804;8.330;2023-03-01T12:50:40;10.20;55.20
3550;DHT22;45572;48.804;8.330;2023-03-01T12:53:20;10.10;55.20
3550;DHT22;45572;48.804;8.330;2023-03-01T12:55:50;10.10;55.50
3550;DHT22;45572;48.804;8.330;2023-03-01T12:58:24;10.10;55.20
3550;DHT22;45572;48.804;8.330;2023-03-01T13:01:16;10.00;55.20
3550;DHT22;45572;48.804;8.330;2023-03-01T13:04:04;9.90;55.80
3550;DHT22;45572;48.804;8.330;2023-03-01T13:06:40;9.90;56.20
3550;DHT22;45572;48.804;8.330;2023-03-01T13:09:20;9.90;56.50
3550;DHT22;45572;48.804;8.330;2023-03-01T13:11:51;9.90;56.50
3550;DHT22;45572;48.804;8.330;2023-03-01T13:14:34;9.90;55.90
3550;DHT22;45572;48.804;8.330;2023-03-01T13:17:02;9.80;57.10
3550;DHT22;45572;48.804;8.330;2023-03-01T13:19:30;9.70;57.00
3550;DHT22;45572;48.804;8.330;2023-03-01T13:21:59;9.60;56.10
3550;DHT22;45572;48.804;8.330;2023-03-01T13:24:33;9.60;56.80
3550;DHT22;45572;48.804;8.330;2023-03-01T13:27:26;9.60;56.50
3550;DHT22;45572;48.804;8.330;2023-03-01T13:29:56;9.60;56.50
3550;DHT22;45572;48.804;8.330;2023-03-01T13:32:27;9.60;56.60
3550;DHT22;45572;48.804;8.330;2023-03-01T13:41:07;9.50;57.60
3550;DHT22;45572;48.804;8.330;2023-03-01T13:43:37;9.40;57.10
3550;DHT22;45572;48.804;8.330;2023-03-01T13:46:11;9.50;57.10
3550;DHT22;45572;48.804;8.330;2023-03-01T13:48:44;9.60;56.70
3550;DHT22;45572;48.804;8.330;2023-03-01T13:51:14;9.60;57.20
3550;DHT22;45572;48.804;8.330;2023-03-01T13:53:45;9.60;56.60
3550;DHT22;45572;48.804;8.330;2023-03-01T13:56:19;9.50;56.50
3550;DHT22;45572;48.804;8.330;2023-03-01T13:58:50;9.40;57.20
3550;DHT22;45572;48.804;8.330;2023-03-01T14:01:27;9.40;58.60
3550;DHT22;45572;48.804;8.330;2023-03-01T14:04:17;9.30;57.40
3550;DHT22;45572;48.804;8.330;2023-03-01T14:06:47;9.30;57.60
3550;DHT22;45572;48.804;8.330;2023-03-01T14:09:21;9.30;58.40
3550;DHT22;45572;48.804;8.330;2023-03-01T14:12:13;9.30;58.70
3550;DHT22;45572;48.804;8.330;2023-03-01T14:14:50;9.30;58.90
3550;DHT22;45572;48.804;8.330;2023-03-01T14:20:14;9.30;57.30
3550;DHT22;45572;48.804;8.330;2023-03-01T14:22:44;9.30;58.30
3550;DHT22;45572;48.804;8.330;2023-03-01T14:25:20;9.30;58.60
3550;DHT22;45572;48.804;8.330;2023-03-01T14:27:55;9.30;58.90
3550;DHT22;45572;48.804;8.330;2023-03-01T14:30:27;9.20;58.60
3550;DHT22;45572;48.804;8.330;2023-03-01T14:32:59;9.20;59.10
3550;DHT22;45572;48.804;8.330;2023-03-01T14:35:28;9.10;58.60
3550;DHT22;45572;48.804;8.330;2023-03-01T14:37:56;9.20;59.30
3550;DHT22;45572;48.804;8.330;2023-03-01T14:40:26;9.20;59.40
3550;DHT22;45572;48.804;8.330;2023-03-01T14:42:58;9.20;59.40
3550;DHT22;45572;48.804;8.330;2023-03-01T14:45:28;9.20;58.90
3550;DHT22;45572;48.804;8.330;2023-03-01T14:48:00;9.20;59.10
3550;DHT22;45572;48.804;8.330;2023-03-01T14:50:31;9.30;58.20
3550;DHT22;45572;48.804;8.330;2023-03-01T14:53:01;9.30;59.20
3550;DHT22;45572;48.804;8.330;2023-03-01T14:55:31;9.30;58.50
3550;DHT22;45572;48.804;8.330;2023-03-01T14:58:06;9.20;58.30
3550;DHT22;45572;48.804;8.330;2023-03-01T15:00:37;9.30;58.40
3550;DHT22;45572;48.804;8.330;2023-03-01T15:03:08;9.30;58.50
3550;DHT22;45572;48.804;8.330;2023-03-01T15:05:41;9.20;58.60
3550;DHT22;45572;48.804;8.330;2023-03-01T15:08:17;9.20;59.00
3550;DHT22;45572;48.804;8.330;2023-03-01T15:10:57;9.20;59.10
3550;DHT22;45572;48.804;8.330;2023-03-01T15:13:30;9.10;58.60
3550;DHT22;45572;48.804;8.330;2023-03-01T15:16:13;9.00;58.70
3550;DHT22;45572;48.804;8.330;2023-03-01T15:18:47;9.00;58.20
3550;DHT22;45572;48.804;8.330;2023-03-01T15:21:17;9.00;59.30
3550;DHT22;45572;48.804;8.330;2023-03-01T15:23:49;8.90;60.20
3550;DHT22;45572;48.804;8.330;2023-03-01T15:26:24;8.90;59.80
3550;DHT22;45572;48.804;8.330;2023-03-01T15:28:55;8.90;59.40
3550;DHT22;45572;48.804;8.330;2023-03-01T15:31:27;8.90;59.90
3550;DHT22;45572;48.804;8.330;2023-03-01T15:34:09;8.90;59.50
3550;DHT22;45572;48.804;8.330;2023-03-01T15:36:40;8.90;60.20
3550;DHT22;45572;48.804;8.330;2023-03-01T15:39:32;8.80;59.20
3550;DHT22;45572;48.804;8.330;2023-03-01T15:42:05;8.80;59.40
3550;DHT22;45572;48.804;8.330;2023-03-01T15:44:37;8.80;59.60
3550;DHT22;45572;48.804;8.330;2023-03-01T15:47:24;8.80;60.10
3550;DHT22;45572;48.804;8.330;2023-03-01T15:49:54;8.80;60.70
3550;DHT22;45572;48.804;8.330;2023-03-01T15:52:24;8.80;61.10
3550;DHT22;45572;48.804;8.330;2023-03-01T15:54:58;8.80;59.10
3550;DHT22;45572;48.804;8.330;2023-03-01T15:57:26;8.70;59.50
3550;DHT22;45572;48.804;8.330;2023-03-01T15:59:57;8.70;59.10
3550;DHT22;45572;48.804;8.330;2023-03-01T16:02:26;8.50;60.00
3550;DHT22;45572;48.804;8.330;2023-03-01T16:04:56;8.50;60.00
3550;DHT22;45572;48.804;8.330;2023-03-01T16:07:24;8.50;60.00
3550;DHT22;45572;48.804;8.330;2023-03-01T16:09:56;8.40;60.10
3550;DHT22;45572;48.804;8.330;2023-03-01T16:12:24;8.30;61.00
3550;DHT22;45572;48.804;8.330;2023-03-01T16:14:53;8.30;61.90
3550;DHT22;45572;48.804;8.330;2023-03-01T16:17:22;8.30;61.50
3550;DHT22;45572;48.804;8.330;2023-03-01T16:19:49;8.20;62.00
3550;DHT22;45572;48.804;8.330;2023-03-01T16:22:17;8.20;62.00
3550;DHT22;45572;48.804;8.330;2023-03-01T16:24:51;8.10;61.80
3550;DHT22;45572;48.804;8.330;2023-03-01T16:27:19;8.10;61.60
3550;DHT22;45572;48.804;8.330;2023-03-01T16:29:47;8.10;61.50